sensor_id;sensor_type;location;lat;lon;timestamp;temperature;humidity
324;DHT22;149;51.094;17.002;2023-04-12T00:00:41;4.10;99.90
324;DHT22;149;51.094;17.002;2023-04-12T00:03:08;4.30;99.90
324;DHT22;149;51.094;17.002;2023-04-12T00:05:36;4.20;99.90
324;DHT22;149;51.094;17.002;2023-04-12T00:08:03;4.00;99.90
324;DHT22;149;51.094;17.002;2023-04-12T00:10:30;4.10;99.90
324;DHT22;149;51.094;17.002;2023-04-12T00:12:57;4.30;99.90
324;DHT22;149;51.094;17.002;2023-04-12T00:15:24;4.20;99.90
324;DHT22;149;51.094;17.002;2023-04-12T00:17:51;4.20;99.90
324;DHT22;149;51.094;17.002;2023-04-12T00:20:18;4.00;99.90
324;DHT22;149;51.094;17.002;2023-04-12T00:22:45;4.00;99.90
324;DHT22;149;51.094;17.002;2023-04-12T00:25:12;3.90;99.90
324;DHT22;149;51.094;17.002;2023-04-12T00:27:39;3.80;99.90
324;DHT22;149;51.094;17.002;2023-04-12T00:30:07;3.80;99.90
324;DHT22;149;51.094;17.002;2023-04-12T00:32:34;3.60;99.90
324;DHT22;149;51.094;17.002;2023-04-12T00:35:01;3.60;99.90
324;DHT22;149;51.094;17.002;2023-04-12T00:37:28;3.70;99.90
324;DHT22;149;51.094;17.002;2023-04-12T00:39:55;3.70;99.90
324;DHT22;149;51.094;17.002;2023-04-12T00:42:22;3.60;99.90
324;DHT22;149;51.094;17.002;2023-04-12T00:44:49;3.70;99.90
324;DHT22;149;51.094;17.002;2023-04-12T00:47:15;3.60;99.90
324;DHT22;149;51.094;17.002;2023-04-12T00:49:42;3.50;99.90
324;DHT22;149;51.094;17.002;2023-04-12T00:52:10;3.50;99.90
324;DHT22;149;51.094;17.002;2023-04-12T00:54:41;3.50;99.90
324;DHT22;149;51.094;17.002;2023-04-12T00:57:08;3.50;99.90
324;DHT22;149;51.094;17.002;2023-04-12T00:59:35;3.70;99.90
324;DHT22;149;51.094;17.002;2023-04-12T01:02:02;3.70;99.90
324;DHT22;149;51.094;17.002;2023-04-12T01:04:29;3.50;99.90
324;DHT22;149;51.094;17.002;2023-04-12T01:10:13;3.50;99.90
324;DHT22;149;51.094;17.002;2023-04-12T01:13:10;3.40;99.90
324;DHT22;149;51.094;17.002;2023-04-12T01:15:46;3.50;99.90
324;DHT22;149;51.094;17.002;2023-04-12T01:18:21;3.50;99.90
324;DHT22;149;51.094;17.002;2023-04-12T01:20:53;3.60;99.90
324;DHT22;149;51.094;17.002;2023-04-12T01:26:33;3.60;99.90
324;DHT22;149;51.094;17.002;2023-04-12T01:29:08;3.30;99.90
324;DHT22;149;51.094;17.002;2023-04-12T01:31:59;3.30;99.90
324;DHT22;149;51.094;17.002;2023-04-12T01:34:30;3.30;99.90
324;DHT22;149;51.094;17.002;2023-04-12T01:37:01;3.30;99.90
324;DHT22;149;51.094;17.002;2023-04-12T01:39:29;3.30;99.90
324;DHT22;149;51.094;17.002;2023-04-12T01:41:58;3.30;99.90
324;DHT22;149;51.094;17.002;2023-04-12T01:44:25;3.20;99.90
324;DHT22;149;51.094;17.002;2023-04-12T01:46:51;3.20;99.90
324;DHT22;149;51.094;17.002;2023-04-12T01:49:20;3.40;99.90
324;DHT22;149;51.094;17.002;2023-04-12T01:52:03;3.30;99.90
324;DHT22;149;51.094;17.002;2023-04-12T01:54:37;3.40;99.90
324;DHT22;149;51.094;17.002;2023-04-12T01:57:04;3.60;99.90
324;DHT22;149;51.094;17.002;2023-04-12T01:59:39;3.60;99.90
324;DHT22;149;51.094;17.002;2023-04-12T02:02:10;3.50;99.90
324;DHT22;149;51.094;17.002;2023-04-12T02:04:41;3.50;99.90
324;DHT22;149;51.094;17.002;2023-04-12T02:07:08;3.50;99.90
324;DHT22;149;51.094;17.002;2023-04-12T02:09:38;3.50;99.90
324;DHT22;149;51.094;17.002;2023-04-12T02:12:06;3.50;99.90
324;DHT22;149;51.094;17.002;2023-04-12T02:14:33;3.60;99.90
324;DHT22;149;51.094;17.002;2023-04-12T02:17:03;3.60;99.90
324;DHT22;149;51.094;17.002;2023-04-12T02:19:31;3.70;99.90
324;DHT22;149;51.094;17.002;2023-04-12T02:21:58;3.60;99.90
324;DHT22;149;51.094;17.002;2023-04-12T02:24:25;3.60;99.90
324;DHT22;149;51.094;17.002;2023-04-12T02:26:52;3.50;99.90
324;DHT22;149;51.094;17.002;2023-04-12T02:29:20;3.60;99.90
324;DHT22;149;51.094;17.002;2023-04-12T02:31:47;3.50;99.90
324;DHT22;149;51.094;17.002;2023-04-12T02:34:14;3.40;99.90
324;DHT22;149;51.094;17.002;2023-04-12T02:36:48;3.30;99.90
324;DHT22;149;51.094;17.002;2023-04-12T02:39:16;3.30;99.90
324;DHT22;149;51.094;17.002;2023-04-12T02:41:47;3.20;99.90
324;DHT22;149;51.094;17.002;2023-04-12T02:44:15;3.20;99.90
324;DHT22;149;51.094;17.002;2023-04-12T02:46:44;3.20;99.90
324;DHT22;149;51.094;17.002;2023-04-12T02:49:11;3.20;99.90
324;DHT22;149;51.094;17.002;2023-04-12T02:51:38;3.10;99.90
324;DHT22;149;51.094;17.002;2023-04-12T02:54:06;3.10;99.90
324;DHT22;149;51.094;17.002;2023-04-12T02:56:36;3.10;99.90
324;DHT22;149;51.094;17.002;2023-04-12T02:59:05;3.10;99.90
324;DHT22;149;51.094;17.002;2023-04-12T03:01:33;3.10;99.90
324;DHT22;149;51.094;17.002;2023-04-12T03:04:01;3.20;99.90
324;DHT22;149;51.094;17.002;2023-04-12T03:06:28;3.30;99.90
324;DHT22;149;51.094;17.002;2023-04-12T03:08:56;3.30;99.90
324;DHT22;149;51.094;17.002;2023-04-12T03:11:24;3.30;99.90
324;DHT22;149;51.094;17.002;2023-04-12T03:13:53;3.30;99.90
324;DHT22;149;51.094;17.002;2023-04-12T03:16:24;3.30;99.90
324;DHT22;149;51.094;17.002;2023-04-12T03:18:52;3.30;99.90
324;DHT22;149;51.094;17.002;2023-04-12T03:21:20;3.20;99.90
324;DHT22;149;51.094;17.002;2023-04-12T03:23:47;3.20;99.90
324;DHT22;149;51.094;17.002;2023-04-12T03:26:14;3.20;99.90
324;DHT22;149;51.094;17.002;2023-04-12T03:28:41;3.20;99.90
324;DHT22;149;51.094;17.002;2023-04-12T03:31:08;3.30;99.90
324;DHT22;149;51.094;17.002;2023-04-12T03:33:36;3.20;99.90
324;DHT22;149;51.094;17.002;2023-04-12T03:36:04;3.20;99.90
324;DHT22;149;51.094;17.002;2023-04-12T03:38:31;3.10;99.90
324;DHT22;149;51.094;17.002;2023-04-12T03:40:59;3.10;99.90
324;DHT22;149;51.094;17.002;2023-04-12T03:43:25;3.00;99.90
324;DHT22;149;51.094;17.002;2023-04-12T03:45:52;3.00;99.90
324;DHT22;149;51.094;17.002;2023-04-12T03:48:21;3.00;99.90
324;DHT22;149;51.094;17.002;2023-04-12T03:50:50;3.00;99.90
324;DHT22;149;51.094;17.002;2023-04-12T03:53:25;2.90;99.90
324;DHT22;149;51.094;17.002;2023-04-12T03:55:58;2.90;99.90
324;DHT22;149;51.094;17.002;2023-04-12T03:58:26;2.90;99.90
324;DHT22;149;51.094;17.002;2023-04-12T04:00:52;2.70;99.90
324;DHT22;149;51.094;17.002;2023-04-12T04:03:19;2.70;99.90
324;DHT22;149;51.094;17.002;2023-04-12T04:05:52;2.80;99.90
324;DHT22;149;51.094;17.002;2023-04-12T04:08:19;2.90;99.90
324;DHT22;149;51.094;17.002;2023-04-12T04:10:46;2.90;99.90
324;DHT22;149;51.094;17.002;2023-04-12T04:13:13;2.80;99.90
324;DHT22;149;51.094;17.002;2023-04-12T04:15:45;2.90;99.90
324;DHT22;149;51.094;17.002;2023-04-12T04:18:15;3.00;99.90
324;DHT22;149;51.094;17.002;2023-04-12T04:20:45;2.90;99.90
324;DHT22;149;51.094;17.002;2023-04-12T04:23:11;3.00;99.90
324;DHT22;149;51.094;17.002;2023-04-12T04:25:38;3.10;99.90
324;DHT22;149;51.094;17.002;2023-04-12T04:28:22;3.10;99.90
324;DHT22;149;51.094;17.002;2023-04-12T04:30:49;3.30;99.90
324;DHT22;149;51.094;17.002;2023-04-12T04:33:17;3.40;99.90
324;DHT22;149;51.094;17.002;2023-04-12T04:35:46;3.50;99.90
324;DHT22;149;51.094;17.002;2023-04-12T04:38:20;3.50;99.90
324;DHT22;149;51.094;17.002;2023-04-12T04:40:51;3.50;99.90
324;DHT22;149;51.094;17.002;2023-04-12T04:43:24;3.50;99.90
324;DHT22;149;51.094;17.002;2023-04-12T04:45:52;3.50;99.90
324;DHT22;149;51.094;17.002;2023-04-12T04:48:23;3.60;99.90
324;DHT22;149;51.094;17.002;2023-04-12T04:50:50;3.90;99.90
324;DHT22;149;51.094;17.002;2023-04-12T04:53:24;4.20;99.90
324;DHT22;149;51.094;17.002;2023-04-12T04:55:58;4.40;99.90
324;DHT22;149;51.094;17.002;2023-04-12T04:58:26;4.70;99.90
324;DHT22;149;51.094;17.002;2023-04-12T05:00:56;5.00;99.90
324;DHT22;149;51.094;17.002;2023-04-12T05:03:23;5.00;99.90
324;DHT22;149;51.094;17.002;2023-04-12T05:05:56;5.20;99.90
324;DHT22;149;51.094;17.002;2023-04-12T05:08:23;5.40;99.90
324;DHT22;149;51.094;17.002;2023-04-12T05:10:55;5.50;99.90
324;DHT22;149;51.094;17.002;2023-04-12T05:13:28;5.50;99.90
324;DHT22;149;51.094;17.002;2023-04-12T05:15:57;5.60;99.90
324;DHT22;149;51.094;17.002;2023-04-12T05:18:24;5.60;99.90
324;DHT22;149;51.094;17.002;2023-04-12T05:20:51;5.50;99.90
324;DHT22;149;51.094;17.002;2023-04-12T05:23:17;5.10;99.90
324;DHT22;149;51.094;17.002;2023-04-12T05:25:50;5.00;99.90
324;DHT22;149;51.094;17.002;2023-04-12T05:28:17;5.10;99.90
324;DHT22;149;51.094;17.002;2023-04-12T05:30:46;5.30;99.90
324;DHT22;149;51.094;17.002;2023-04-12T05:33:13;5.50;99.90
324;DHT22;149;51.094;17.002;2023-04-12T05:35:41;5.90;99.90
324;DHT22;149;51.094;17.002;2023-04-12T05:38:08;6.30;99.90
324;DHT22;149;51.094;17.002;2023-04-12T05:40:35;6.40;99.90
324;DHT22;149;51.094;17.002;2023-04-12T05:43:02;6.70;99.90
324;DHT22;149;51.094;17.002;2023-04-12T05:45:29;7.00;99.90
324;DHT22;149;51.094;17.002;2023-04-12T05:47:56;7.40;99.90
324;DHT22;149;51.094;17.002;2023-04-12T05:50:22;7.90;99.90
324;DHT22;149;51.094;17.002;2023-04-12T05:52:51;8.00;99.90
324;DHT22;149;51.094;17.002;2023-04-12T05:55:19;8.10;99.90
324;DHT22;149;51.094;17.002;2023-04-12T05:57:47;8.40;99.90
324;DHT22;149;51.094;17.002;2023-04-12T06:00:14;8.70;99.90
324;DHT22;149;51.094;17.002;2023-04-12T06:02:48;8.90;99.90
324;DHT22;149;51.094;17.002;2023-04-12T06:05:16;9.20;99.90
324;DHT22;149;51.094;17.002;2023-04-12T06:07:43;9.70;99.90
324;DHT22;149;51.094;17.002;2023-04-12T06:10:15;10.20;99.90
324;DHT22;149;51.094;17.002;2023-04-12T06:12:43;10.90;99.90
324;DHT22;149;51.094;17.002;2023-04-12T06:15:11;11.70;99.90
324;DHT22;149;51.094;17.002;2023-04-12T06:17:38;12.00;99.90
324;DHT22;149;51.094;17.002;2023-04-12T06:20:05;12.50;99.90
324;DHT22;149;51.094;17.002;2023-04-12T06:22:36;12.60;99.90
324;DHT22;149;51.094;17.002;2023-04-12T06:25:03;12.50;99.90
324;DHT22;149;51.094;17.002;2023-04-12T06:27:30;12.70;99.90
324;DHT22;149;51.094;17.002;2023-04-12T06:29:57;13.20;99.90
324;DHT22;149;51.094;17.002;2023-04-12T06:32:24;13.50;99.90
324;DHT22;149;51.094;17.002;2023-04-12T06:34:52;14.20;99.90
324;DHT22;149;51.094;17.002;2023-04-12T06:37:20;14.80;99.90
324;DHT22;149;51.094;17.002;2023-04-12T06:39:47;15.90;99.90
324;DHT22;149;51.094;17.002;2023-04-12T06:42:16;16.20;99.90
324;DHT22;149;51.094;17.002;2023-04-12T06:44:43;17.70;99.90
324;DHT22;149;51.094;17.002;2023-04-12T06:47:10;18.50;99.90
324;DHT22;149;51.094;17.002;2023-04-12T06:49:38;19.10;99.90
324;DHT22;149;51.094;17.002;2023-04-12T06:52:05;20.20;99.90
324;DHT22;149;51.094;17.002;2023-04-12T06:54:35;20.40;99.90
324;DHT22;149;51.094;17.002;2023-04-12T06:57:02;21.50;99.50
324;DHT22;149;51.094;17.002;2023-04-12T06:59:28;23.10;97.90
324;DHT22;149;51.094;17.002;2023-04-12T07:01:55;22.90;93.50
324;DHT22;149;51.094;17.002;2023-04-12T07:04:22;23.40;93.10
324;DHT22;149;51.094;17.002;2023-04-12T07:06:49;23.90;85.00
324;DHT22;149;51.094;17.002;2023-04-12T07:09:17;25.20;83.70
324;DHT22;149;51.094;17.002;2023-04-12T07:11:45;24.70;84.00
324;DHT22;149;51.094;17.002;2023-04-12T07:14:13;25.60;79.70
324;DHT22;149;51.094;17.002;2023-04-12T07:16:41;25.50;74.70
324;DHT22;149;51.094;17.002;2023-04-12T07:19:08;24.40;76.70
324;DHT22;149;51.094;17.002;2023-04-12T07:21:35;24.70;78.40
324;DHT22;149;51.094;17.002;2023-04-12T07:24:02;26.90;73.20
324;DHT22;149;51.094;17.002;2023-04-12T07:26:29;27.30;69.90
324;DHT22;149;51.094;17.002;2023-04-12T07:28:57;28.10;68.50
324;DHT22;149;51.094;17.002;2023-04-12T07:31:24;27.10;67.00
324;DHT22;149;51.094;17.002;2023-04-12T07:33:51;26.30;71.20
324;DHT22;149;51.094;17.002;2023-04-12T07:36:18;27.30;67.70
324;DHT22;149;51.094;17.002;2023-04-12T07:38:47;27.60;68.00
324;DHT22;149;51.094;17.002;2023-04-12T07:41:15;26.60;67.00
324;DHT22;149;51.094;17.002;2023-04-12T07:43:44;26.80;67.40
324;DHT22;149;51.094;17.002;2023-04-12T07:46:11;25.00;68.10
324;DHT22;149;51.094;17.002;2023-04-12T07:48:38;25.30;70.80
324;DHT22;149;51.094;17.002;2023-04-12T07:51:05;27.50;68.60
324;DHT22;149;51.094;17.002;2023-04-12T07:53:31;28.20;64.90
324;DHT22;149;51.094;17.002;2023-04-12T07:55:58;28.60;61.50
324;DHT22;149;51.094;17.002;2023-04-12T07:58:25;28.30;62.50
324;DHT22;149;51.094;17.002;2023-04-12T08:00:52;27.60;64.50
324;DHT22;149;51.094;17.002;2023-04-12T08:03:19;28.10;59.80
324;DHT22;149;51.094;17.002;2023-04-12T08:05:46;27.60;59.90
324;DHT22;149;51.094;17.002;2023-04-12T08:08:21;28.20;64.80
324;DHT22;149;51.094;17.002;2023-04-12T08:10:49;28.70;59.60
324;DHT22;149;51.094;17.002;2023-04-12T08:13:17;30.40;59.30
324;DHT22;149;51.094;17.002;2023-04-12T08:15:44;30.40;57.90
324;DHT22;149;51.094;17.002;2023-04-12T08:18:13;30.10;58.50
324;DHT22;149;51.094;17.002;2023-04-12T08:20:40;31.50;56.60
324;DHT22;149;51.094;17.002;2023-04-12T08:23:10;32.80;54.90
324;DHT22;149;51.094;17.002;2023-04-12T08:25:38;31.30;53.20
324;DHT22;149;51.094;17.002;2023-04-12T08:28:05;29.80;56.40
324;DHT22;149;51.094;17.002;2023-04-12T08:30:35;27.10;59.20
324;DHT22;149;51.094;17.002;2023-04-12T08:33:02;23.30;63.90
324;DHT22;149;51.094;17.002;2023-04-12T08:35:29;21.60;73.20
324;DHT22;149;51.094;17.002;2023-04-12T08:37:56;19.90;86.30
324;DHT22;149;51.094;17.002;2023-04-12T08:40:24;19.70;92.30
324;DHT22;149;51.094;17.002;2023-04-12T08:42:51;21.60;91.10
324;DHT22;149;51.094;17.002;2023-04-12T08:45:20;23.60;82.30
324;DHT22;149;51.094;17.002;2023-04-12T08:47:49;24.90;75.70
324;DHT22;149;51.094;17.002;2023-04-12T08:50:16;25.70;67.10
324;DHT22;149;51.094;17.002;2023-04-12T08:52:45;26.30;66.00
324;DHT22;149;51.094;17.002;2023-04-12T08:55:14;28.10;61.80
324;DHT22;149;51.094;17.002;2023-04-12T08:57:41;29.40;59.80
324;DHT22;149;51.094;17.002;2023-04-12T09:00:09;30.40;57.40
324;DHT22;149;51.094;17.002;2023-04-12T09:02:37;30.40;56.40
324;DHT22;149;51.094;17.002;2023-04-12T09:05:05;29.70;57.30
324;DHT22;149;51.094;17.002;2023-04-12T09:07:33;30.10;57.30
324;DHT22;149;51.094;17.002;2023-04-12T09:10:00;30.60;55.40
324;DHT22;149;51.094;17.002;2023-04-12T09:12:27;29.60;56.70
324;DHT22;149;51.094;17.002;2023-04-12T09:15:07;28.30;56.10
324;DHT22;149;51.094;17.002;2023-04-12T09:17:35;26.20;58.70
324;DHT22;149;51.094;17.002;2023-04-12T09:22:37;25.20;63.00
324;DHT22;149;51.094;17.002;2023-04-12T09:25:11;24.60;63.60
324;DHT22;149;51.094;17.002;2023-04-12T09:27:48;22.90;68.10
324;DHT22;149;51.094;17.002;2023-04-12T09:30:17;22.10;78.40
324;DHT22;149;51.094;17.002;2023-04-12T09:32:45;21.20;81.60
324;DHT22;149;51.094;17.002;2023-04-12T09:35:15;20.80;84.30
324;DHT22;149;51.094;17.002;2023-04-12T09:37:42;20.40;85.70
324;DHT22;149;51.094;17.002;2023-04-12T09:40:10;20.00;93.70
324;DHT22;149;51.094;17.002;2023-04-12T09:42:53;19.50;95.10
324;DHT22;149;51.094;17.002;2023-04-12T09:45:24;18.80;94.70
324;DHT22;149;51.094;17.002;2023-04-12T09:47:52;18.40;99.30
324;DHT22;149;51.094;17.002;2023-04-12T09:50:25;17.80;99.80
324;DHT22;149;51.094;17.002;2023-04-12T09:52:53;17.70;99.90
324;DHT22;149;51.094;17.002;2023-04-12T09:55:23;17.20;99.90
324;DHT22;149;51.094;17.002;2023-04-12T09:57:52;16.60;99.90
324;DHT22;149;51.094;17.002;2023-04-12T10:00:23;16.20;99.90
324;DHT22;149;51.094;17.002;2023-04-12T10:02:54;16.20;99.90
324;DHT22;149;51.094;17.002;2023-04-12T10:05:23;16.10;99.90
324;DHT22;149;51.094;17.002;2023-04-12T10:07:54;16.10;99.90
324;DHT22;149;51.094;17.002;2023-04-12T10:10:21;15.70;99.90
324;DHT22;149;51.094;17.002;2023-04-12T10:12:49;15.40;99.90
324;DHT22;149;51.094;17.002;2023-04-12T10:15:17;14.80;99.90
324;DHT22;149;51.094;17.002;2023-04-12T10:17:53;14.90;99.90
324;DHT22;149;51.094;17.002;2023-04-12T10:20:21;15.00;99.90
324;DHT22;149;51.094;17.002;2023-04-12T10:22:55;15.20;99.90
324;DHT22;149;51.094;17.002;2023-04-12T10:25:23;15.40;99.90
324;DHT22;149;51.094;17.002;2023-04-12T10:27:51;15.70;99.90
324;DHT22;149;51.094;17.002;2023-04-12T10:30:26;16.30;99.90
324;DHT22;149;51.094;17.002;2023-04-12T10:35:51;17.00;99.90
324;DHT22;149;51.094;17.002;2023-04-12T10:38:19;16.30;99.90
324;DHT22;149;51.094;17.002;2023-04-12T10:43:46;15.80;99.90
324;DHT22;149;51.094;17.002;2023-04-12T10:49:08;15.00;99.90
324;DHT22;149;51.094;17.002;2023-04-12T10:51:35;14.70;99.90
324;DHT22;149;51.094;17.002;2023-04-12T10:56:42;14.80;99.90
324;DHT22;149;51.094;17.002;2023-04-12T10:59:10;15.10;99.90
324;DHT22;149;51.094;17.002;2023-04-12T11:01:39;15.00;99.90
324;DHT22;149;51.094;17.002;2023-04-12T11:22:06;15.50;99.90
324;DHT22;149;51.094;17.002;2023-04-12T11:24:38;15.30;99.90
324;DHT22;149;51.094;17.002;2023-04-12T11:27:05;15.20;99.90
324;DHT22;149;51.094;17.002;2023-04-12T11:29:32;15.40;99.90
324;DHT22;149;51.094;17.002;2023-04-12T11:32:03;15.50;99.90
324;DHT22;149;51.094;17.002;2023-04-12T11:34:34;15.50;99.90
324;DHT22;149;51.094;17.002;2023-04-12T11:37:02;15.20;99.90
324;DHT22;149;51.094;17.002;2023-04-12T11:39:33;15.30;99.90
324;DHT22;149;51.094;17.002;2023-04-12T11:42:00;14.90;99.90
324;DHT22;149;51.094;17.002;2023-04-12T11:44:30;14.60;99.90
324;DHT22;149;51.094;17.002;2023-04-12T11:47:22;14.50;99.90
324;DHT22;149;51.094;17.002;2023-04-12T11:49:57;14.00;99.90
324;DHT22;149;51.094;17.002;2023-04-12T11:52:31;13.90;99.90
324;DHT22;149;51.094;17.002;2023-04-12T11:55:01;13.90;99.90
324;DHT22;149;51.094;17.002;2023-04-12T11:57:30;13.90;99.90
324;DHT22;149;51.094;17.002;2023-04-12T11:59:59;13.90;99.90
324;DHT22;149;51.094;17.002;2023-04-12T12:02:27;13.70;99.90
324;DHT22;149;51.094;17.002;2023-04-12T12:05:04;13.60;99.90
324;DHT22;149;51.094;17.002;2023-04-12T12:07:32;13.70;99.90
324;DHT22;149;51.094;17.002;2023-04-12T12:10:00;13.70;99.90
324;DHT22;149;51.094;17.002;2023-04-12T12:12:27;13.70;99.90
324;DHT22;149;51.094;17.002;2023-04-12T12:14:58;13.90;99.90
324;DHT22;149;51.094;17.002;2023-04-12T12:17:26;13.80;99.90
324;DHT22;149;51.094;17.002;2023-04-12T12:19:56;13.60;99.90
324;DHT22;149;51.094;17.002;2023-04-12T12:22:24;13.20;99.90
324;DHT22;149;51.094;17.002;2023-04-12T12:24:58;13.10;99.90
324;DHT22;149;51.094;17.002;2023-04-12T12:29:59;13.30;99.90
324;DHT22;149;51.094;17.002;2023-04-12T12:32:34;13.30;99.90
324;DHT22;149;51.094;17.002;2023-04-12T12:35:07;13.40;99.90
324;DHT22;149;51.094;17.002;2023-04-12T12:37:35;13.50;99.90
324;DHT22;149;51.094;17.002;2023-04-12T12:40:10;13.60;99.90
324;DHT22;149;51.094;17.002;2023-04-12T12:42:47;13.60;99.90
324;DHT22;149;51.094;17.002;2023-04-12T12:45:15;13.60;99.90
324;DHT22;149;51.094;17.002;2023-04-12T12:47:59;13.50;99.90
324;DHT22;149;51.094;17.002;2023-04-12T12:50:30;13.80;99.90
324;DHT22;149;51.094;17.002;2023-04-12T12:52:57;14.00;99.90
324;DHT22;149;51.094;17.002;2023-04-12T12:55:27;14.20;99.90
324;DHT22;149;51.094;17.002;2023-04-12T12:57:57;14.40;99.90
324;DHT22;149;51.094;17.002;2023-04-12T13:00:28;14.40;99.90
324;DHT22;149;51.094;17.002;2023-04-12T13:02:55;14.40;99.90
324;DHT22;149;51.094;17.002;2023-04-12T13:05:24;14.10;99.90
324;DHT22;149;51.094;17.002;2023-04-12T13:07:51;14.20;99.90
324;DHT22;149;51.094;17.002;2023-04-12T13:10:18;14.20;99.90
324;DHT22;149;51.094;17.002;2023-04-12T13:12:45;14.20;99.90
324;DHT22;149;51.094;17.002;2023-04-12T13:15:13;14.30;99.90
324;DHT22;149;51.094;17.002;2023-04-12T13:17:44;14.10;99.90
324;DHT22;149;51.094;17.002;2023-04-12T13:20:10;14.20;99.90
324;DHT22;149;51.094;17.002;2023-04-12T13:22:38;13.90;99.90
324;DHT22;149;51.094;17.002;2023-04-12T13:25:05;14.00;99.90
324;DHT22;149;51.094;17.002;2023-04-12T13:27:34;13.80;99.90
324;DHT22;149;51.094;17.002;2023-04-12T13:30:00;14.10;99.90
324;DHT22;149;51.094;17.002;2023-04-12T13:32:27;14.20;99.90
324;DHT22;149;51.094;17.002;2023-04-12T13:34:54;14.10;99.90
324;DHT22;149;51.094;17.002;2023-04-12T13:37:21;14.10;99.90
324;DHT22;149;51.094;17.002;2023-04-12T13:39:51;14.00;99.90
324;DHT22;149;51.094;17.002;2023-04-12T13:42:18;13.90;99.90
324;DHT22;149;51.094;17.002;2023-04-12T13:44:45;13.80;99.90
324;DHT22;149;51.094;17.002;2023-04-12T13:47:15;13.60;99.90
324;DHT22;149;51.094;17.002;2023-04-12T13:49:41;13.60;99.90
324;DHT22;149;51.094;17.002;2023-04-12T13:52:08;13.60;99.90
324;DHT22;149;51.094;17.002;2023-04-12T13:54:35;13.60;99.90
324;DHT22;149;51.094;17.002;2023-04-12T13:57:03;13.50;99.90
324;DHT22;149;51.094;17.002;2023-04-12T13:59:30;13.50;99.90
324;DHT22;149;51.094;17.002;2023-04-12T14:02:00;13.60;99.90
324;DHT22;149;51.094;17.002;2023-04-12T14:04:28;13.70;99.90
324;DHT22;149;51.094;17.002;2023-04-12T14:06:55;13.70;99.90
324;DHT22;149;51.094;17.002;2023-04-12T14:09:29;13.70;99.90
324;DHT22;149;51.094;17.002;2023-04-12T14:11:58;13.70;99.90
324;DHT22;149;51.094;17.002;2023-04-12T14:14:27;13.60;99.90
324;DHT22;149;51.094;17.002;2023-04-12T14:16:55;13.60;99.90
324;DHT22;149;51.094;17.002;2023-04-12T14:19:26;13.60;99.90
324;DHT22;149;51.094;17.002;2023-04-12T14:21:53;13.60;99.90
324;DHT22;149;51.094;17.002;2023-04-12T14:24:21;13.70;99.90
324;DHT22;149;51.094;17.002;2023-04-12T14:26:48;13.70;99.90
324;DHT22;149;51.094;17.002;2023-04-12T14:29:19;13.70;99.90
324;DHT22;149;51.094;17.002;2023-04-12T14:31:47;13.80;99.90
324;DHT22;149;51.094;17.002;2023-04-12T14:34:14;13.60;99.90
324;DHT22;149;51.094;17.002;2023-04-12T14:36:43;13.50;99.90
324;DHT22;149;51.094;17.002;2023-04-12T14:39:10;13.50;99.90
324;DHT22;149;51.094;17.002;2023-04-12T14:41:40;13.50;99.90
324;DHT22;149;51.094;17.002;2023-04-12T14:44:08;13.60;99.90
324;DHT22;149;51.094;17.002;2023-04-12T14:46:35;13.60;99.90
324;DHT22;149;51.094;17.002;2023-04-12T14:49:04;13.70;99.90
324;DHT22;149;51.094;17.002;2023-04-12T14:51:32;13.60;99.90
324;DHT22;149;51.094;17.002;2023-04-12T14:54:01;13.60;99.90
324;DHT22;149;51.094;17.002;2023-04-12T14:56:28;13.70;99.90
324;DHT22;149;51.094;17.002;2023-04-12T14:59:04;13.70;99.90
324;DHT22;149;51.094;17.002;2023-04-12T15:01:31;13.80;99.90
324;DHT22;149;51.094;17.002;2023-04-12T15:03:59;13.80;99.90
324;DHT22;149;51.094;17.002;2023-04-12T15:06:28;13.80;99.90
324;DHT22;149;51.094;17.002;2023-04-12T15:08:59;13.70;99.90
324;DHT22;149;51.094;17.002;2023-04-12T15:11:28;13.60;99.90
324;DHT22;149;51.094;17.002;2023-04-12T15:13:54;13.60;99.90
324;DHT22;149;51.094;17.002;2023-04-12T15:16:23;13.50;99.90
324;DHT22;149;51.094;17.002;2023-04-12T15:18:50;13.50;99.90
324;DHT22;149;51.094;17.002;2023-04-12T15:21:18;13.40;99.90
324;DHT22;149;51.094;17.002;2023-04-12T15:23:45;13.30;99.90
324;DHT22;149;51.094;17.002;2023-04-12T15:26:13;13.30;99.90
324;DHT22;149;51.094;17.002;2023-04-12T15:28:40;13.50;99.90
324;DHT22;149;51.094;17.002;2023-04-12T15:31:09;13.40;99.90
324;DHT22;149;51.094;17.002;2023-04-12T15:33:37;13.30;99.90
324;DHT22;149;51.094;17.002;2023-04-12T15:36:05;13.30;99.90
324;DHT22;149;51.094;17.002;2023-04-12T15:38:39;13.20;99.90
324;DHT22;149;51.094;17.002;2023-04-12T15:41:08;13.20;99.90
324;DHT22;149;51.094;17.002;2023-04-12T15:43:35;13.30;99.90
324;DHT22;149;51.094;17.002;2023-04-12T15:46:05;13.30;99.90
324;DHT22;149;51.094;17.002;2023-04-12T15:48:32;13.30;99.90
324;DHT22;149;51.094;17.002;2023-04-12T15:51:01;13.30;99.90
324;DHT22;149;51.094;17.002;2023-04-12T15:53:30;13.20;99.90
324;DHT22;149;51.094;17.002;2023-04-12T15:55:58;13.10;99.90
324;DHT22;149;51.094;17.002;2023-04-12T15:58:27;13.10;99.90
324;DHT22;149;51.094;17.002;2023-04-12T16:00:55;13.10;99.90
324;DHT22;149;51.094;17.002;2023-04-12T16:03:23;13.10;99.90
324;DHT22;149;51.094;17.002;2023-04-12T16:05:51;13.10;99.90
324;DHT22;149;51.094;17.002;2023-04-12T16:08:20;13.00;99.90
324;DHT22;149;51.094;17.002;2023-04-12T16:10:50;12.90;99.90
324;DHT22;149;51.094;17.002;2023-04-12T16:13:17;12.90;99.90
324;DHT22;149;51.094;17.002;2023-04-12T16:15:44;12.80;99.90
324;DHT22;149;51.094;17.002;2023-04-12T16:18:11;12.80;99.90
324;DHT22;149;51.094;17.002;2023-04-12T16:20:38;12.80;99.90
324;DHT22;149;51.094;17.002;2023-04-12T16:23:08;12.70;99.90
324;DHT22;149;51.094;17.002;2023-04-12T16:25:36;12.70;99.90
324;DHT22;149;51.094;17.002;2023-04-12T16:28:03;12.70;99.90
324;DHT22;149;51.094;17.002;2023-04-12T16:30:31;12.80;99.90
324;DHT22;149;51.094;17.002;2023-04-12T16:32:58;12.70;99.90
324;DHT22;149;51.094;17.002;2023-04-12T16:35:26;12.70;99.90
324;DHT22;149;51.094;17.002;2023-04-12T16:37:53;12.60;99.90
324;DHT22;149;51.094;17.002;2023-04-12T16:40:21;12.60;99.90
324;DHT22;149;51.094;17.002;2023-04-12T16:42:48;12.50;99.90
324;DHT22;149;51.094;17.002;2023-04-12T16:45:15;12.60;99.90
324;DHT22;149;51.094;17.002;2023-04-12T16:47:45;12.40;99.90
324;DHT22;149;51.094;17.002;2023-04-12T16:50:12;12.30;99.90
324;DHT22;149;51.094;17.002;2023-04-12T16:52:39;12.20;99.90
324;DHT22;149;51.094;17.002;2023-04-12T16:55:11;12.10;99.90
324;DHT22;149;51.094;17.002;2023-04-12T16:57:40;12.10;99.90
324;DHT22;149;51.094;17.002;2023-04-12T17:00:09;12.20;99.90
324;DHT22;149;51.094;17.002;2023-04-12T17:02:47;12.00;99.90
324;DHT22;149;51.094;17.002;2023-04-12T17:05:18;12.00;99.90
324;DHT22;149;51.094;17.002;2023-04-12T17:07:47;11.90;99.90
324;DHT22;149;51.094;17.002;2023-04-12T17:10:19;11.90;99.90
324;DHT22;149;51.094;17.002;2023-04-12T17:12:55;11.80;99.90
324;DHT22;149;51.094;17.002;2023-04-12T17:15:24;11.80;99.90